sensor_id;sensor_type;location;lat;lon;timestamp;P1;durP1;ratioP1;P2;durP2;ratioP2
16308;SDS011;8263;48.880;9.276;2022-08-19T00:00:37;2.92;;;2.22;;
16308;SDS011;8263;48.880;9.276;2022-08-19T00:03:04;3.92;;;2.60;;
16308;SDS011;8263;48.880;9.276;2022-08-19T00:05:33;3.95;;;2.08;;
16308;SDS011;8263;48.880;9.276;2022-08-19T00:08:00;2.67;;;1.92;;
16308;SDS011;8263;48.880;9.276;2022-08-19T00:10:26;4.65;;;2.63;;
16308;SDS011;8263;48.880;9.276;2022-08-19T00:12:53;5.45;;;2.58;;
16308;SDS011;8263;48.880;9.276;2022-08-19T00:15:21;6.15;;;2.88;;
16308;SDS011;8263;48.880;9.276;2022-08-19T00:17:48;3.47;;;2.47;;
16308;SDS011;8263;48.880;9.276;2022-08-19T00:20:16;4.15;;;2.20;;
16308;SDS011;8263;48.880;9.276;2022-08-19T00:22:43;4.15;;;2.33;;
16308;SDS011;8263;48.880;9.276;2022-08-19T00:25:10;3.67;;;2.40;;
16308;SDS011;8263;48.880;9.276;2022-08-19T00:27:37;4.88;;;2.67;;
16308;SDS011;8263;48.880;9.276;2022-08-19T00:30:04;3.53;;;2.25;;
16308;SDS011;8263;48.880;9.276;2022-08-19T00:32:32;3.35;;;2.28;;
16308;SDS011;8263;48.880;9.276;2022-08-19T00:35:00;3.55;;;2.47;;
16308;SDS011;8263;48.880;9.276;2022-08-19T00:37:26;3.55;;;2.40;;
16308;SDS011;8263;48.880;9.276;2022-08-19T00:39:55;4.20;;;2.58;;
16308;SDS011;8263;48.880;9.276;2022-08-19T00:42:22;3.22;;;2.42;;
16308;SDS011;8263;48.880;9.276;2022-08-19T00:44:48;3.78;;;2.22;;
16308;SDS011;8263;48.880;9.276;2022-08-19T00:47:15;4.00;;;2.28;;
16308;SDS011;8263;48.880;9.276;2022-08-19T00:49:47;3.65;;;2.22;;
16308;SDS011;8263;48.880;9.276;2022-08-19T00:52:17;5.63;;;2.88;;
16308;SDS011;8263;48.880;9.276;2022-08-19T00:54:45;3.55;;;2.20;;
16308;SDS011;8263;48.880;9.276;2022-08-19T00:57:13;4.57;;;2.45;;
16308;SDS011;8263;48.880;9.276;2022-08-19T00:59:44;4.90;;;2.92;;
16308;SDS011;8263;48.880;9.276;2022-08-19T01:02:12;4.70;;;2.63;;
16308;SDS011;8263;48.880;9.276;2022-08-19T01:04:39;3.40;;;2.30;;
16308;SDS011;8263;48.880;9.276;2022-08-19T01:07:08;3.08;;;2.08;;
16308;SDS011;8263;48.880;9.276;2022-08-19T01:09:34;5.95;;;2.45;;
16308;SDS011;8263;48.880;9.276;2022-08-19T01:12:01;4.45;;;2.13;;
16308;SDS011;8263;48.880;9.276;2022-08-19T01:14:28;4.07;;;2.60;;
16308;SDS011;8263;48.880;9.276;2022-08-19T01:16:55;4.75;;;2.78;;
16308;SDS011;8263;48.880;9.276;2022-08-19T01:19:23;3.50;;;2.50;;
16308;SDS011;8263;48.880;9.276;2022-08-19T01:21:55;3.13;;;1.92;;
16308;SDS011;8263;48.880;9.276;2022-08-19T01:24:26;4.15;;;2.33;;
16308;SDS011;8263;48.880;9.276;2022-08-19T01:26:52;2.70;;;2.00;;
16308;SDS011;8263;48.880;9.276;2022-08-19T01:29:19;4.47;;;2.58;;
16308;SDS011;8263;48.880;9.276;2022-08-19T01:31:46;2.72;;;2.10;;
16308;SDS011;8263;48.880;9.276;2022-08-19T01:34:17;4.13;;;2.38;;
16308;SDS011;8263;48.880;9.276;2022-08-19T01:36:44;3.67;;;2.25;;
16308;SDS011;8263;48.880;9.276;2022-08-19T01:39:13;2.97;;;2.15;;
16308;SDS011;8263;48.880;9.276;2022-08-19T01:41:41;4.97;;;2.78;;
16308;SDS011;8263;48.880;9.276;2022-08-19T01:44:11;2.97;;;2.25;;
16308;SDS011;8263;48.880;9.276;2022-08-19T01:46:38;5.32;;;3.03;;
16308;SDS011;8263;48.880;9.276;2022-08-19T01:49:05;3.28;;;2.45;;
16308;SDS011;8263;48.880;9.276;2022-08-19T01:51:32;4.30;;;2.75;;
16308;SDS011;8263;48.880;9.276;2022-08-19T01:53:59;5.93;;;2.70;;
16308;SDS011;8263;48.880;9.276;2022-08-19T01:56:25;4.00;;;2.83;;
16308;SDS011;8263;48.880;9.276;2022-08-19T01:58:55;3.95;;;2.47;;
16308;SDS011;8263;48.880;9.276;2022-08-19T02:01:23;5.25;;;2.78;;
16308;SDS011;8263;48.880;9.276;2022-08-19T02:03:49;3.97;;;2.42;;
16308;SDS011;8263;48.880;9.276;2022-08-19T02:06:19;6.72;;;2.92;;
16308;SDS011;8263;48.880;9.276;2022-08-19T02:08:46;4.53;;;2.33;;
16308;SDS011;8263;48.880;9.276;2022-08-19T02:11:18;4.45;;;2.70;;
16308;SDS011;8263;48.880;9.276;2022-08-19T02:13:46;5.68;;;2.53;;
16308;SDS011;8263;48.880;9.276;2022-08-19T02:16:17;4.88;;;2.25;;
16308;SDS011;8263;48.880;9.276;2022-08-19T02:18:44;4.13;;;1.98;;
16308;SDS011;8263;48.880;9.276;2022-08-19T02:21:13;4.45;;;2.70;;
16308;SDS011;8263;48.880;9.276;2022-08-19T02:23:40;4.75;;;2.50;;
16308;SDS011;8263;48.880;9.276;2022-08-19T02:26:07;5.68;;;2.80;;
16308;SDS011;8263;48.880;9.276;2022-08-19T02:28:34;3.22;;;2.15;;
16308;SDS011;8263;48.880;9.276;2022-08-19T02:31:01;3.78;;;2.75;;
16308;SDS011;8263;48.880;9.276;2022-08-19T02:33:30;3.85;;;2.10;;
16308;SDS011;8263;48.880;9.276;2022-08-19T02:35:59;3.30;;;2.33;;
16308;SDS011;8263;48.880;9.276;2022-08-19T02:38:29;4.70;;;2.53;;
16308;SDS011;8263;48.880;9.276;2022-08-19T02:40:55;5.00;;;2.40;;
16308;SDS011;8263;48.880;9.276;2022-08-19T02:43:24;3.75;;;2.33;;
16308;SDS011;8263;48.880;9.276;2022-08-19T02:45:51;5.15;;;2.47;;
16308;SDS011;8263;48.880;9.276;2022-08-19T02:48:20;4.25;;;2.55;;
16308;SDS011;8263;48.880;9.276;2022-08-19T02:50:52;5.53;;;2.47;;
16308;SDS011;8263;48.880;9.276;2022-08-19T02:53:20;3.92;;;2.08;;
16308;SDS011;8263;48.880;9.276;2022-08-19T02:55:47;6.13;;;2.95;;
16308;SDS011;8263;48.880;9.276;2022-08-19T02:58:15;3.65;;;2.45;;
16308;SDS011;8263;48.880;9.276;2022-08-19T03:00:44;6.32;;;2.85;;
16308;SDS011;8263;48.880;9.276;2022-08-19T03:03:11;4.38;;;2.55;;
16308;SDS011;8263;48.880;9.276;2022-08-19T03:05:38;5.80;;;2.45;;
16308;SDS011;8263;48.880;9.276;2022-08-19T03:08:07;5.22;;;3.03;;
16308;SDS011;8263;48.880;9.276;2022-08-19T03:10:39;4.80;;;2.65;;
16308;SDS011;8263;48.880;9.276;2022-08-19T03:13:07;6.00;;;2.55;;
16308;SDS011;8263;48.880;9.276;2022-08-19T03:15:34;3.38;;;2.03;;
16308;SDS011;8263;48.880;9.276;2022-08-19T03:18:00;5.38;;;2.55;;
16308;SDS011;8263;48.880;9.276;2022-08-19T03:20:27;4.55;;;2.40;;
16308;SDS011;8263;48.880;9.276;2022-08-19T03:22:53;5.53;;;2.72;;
16308;SDS011;8263;48.880;9.276;2022-08-19T03:25:22;5.20;;;2.60;;
16308;SDS011;8263;48.880;9.276;2022-08-19T03:27:49;7.63;;;2.78;;
16308;SDS011;8263;48.880;9.276;2022-08-19T03:30:15;3.38;;;2.25;;
16308;SDS011;8263;48.880;9.276;2022-08-19T03:32:42;7.30;;;3.30;;
16308;SDS011;8263;48.880;9.276;2022-08-19T03:35:09;5.82;;;2.95;;
16308;SDS011;8263;48.880;9.276;2022-08-19T03:37:38;5.22;;;2.85;;
16308;SDS011;8263;48.880;9.276;2022-08-19T03:40:05;5.07;;;2.50;;
16308;SDS011;8263;48.880;9.276;2022-08-19T03:42:33;5.28;;;3.00;;
16308;SDS011;8263;48.880;9.276;2022-08-19T03:44:59;4.90;;;3.17;;
16308;SDS011;8263;48.880;9.276;2022-08-19T03:47:27;4.57;;;2.95;;
16308;SDS011;8263;48.880;9.276;2022-08-19T03:49:55;4.70;;;2.70;;
16308;SDS011;8263;48.880;9.276;2022-08-19T03:52:21;5.28;;;3.03;;
16308;SDS011;8263;48.880;9.276;2022-08-19T03:54:48;6.18;;;3.22;;
16308;SDS011;8263;48.880;9.276;2022-08-19T03:57:14;9.30;;;2.60;;
16308;SDS011;8263;48.880;9.276;2022-08-19T03:59:44;8.68;;;2.75;;
16308;SDS011;8263;48.880;9.276;2022-08-19T04:02:10;3.33;;;2.30;;
16308;SDS011;8263;48.880;9.276;2022-08-19T04:04:38;5.28;;;2.97;;
16308;SDS011;8263;48.880;9.276;2022-08-19T04:07:05;5.60;;;2.33;;
16308;SDS011;8263;48.880;9.276;2022-08-19T04:09:32;5.13;;;2.42;;
16308;SDS011;8263;48.880;9.276;2022-08-19T04:11:59;5.05;;;2.67;;
16308;SDS011;8263;48.880;9.276;2022-08-19T04:14:26;4.43;;;2.53;;
16308;SDS011;8263;48.880;9.276;2022-08-19T04:16:58;3.97;;;2.53;;
16308;SDS011;8263;48.880;9.276;2022-08-19T04:19:25;5.65;;;3.15;;
16308;SDS011;8263;48.880;9.276;2022-08-19T04:21:53;4.53;;;2.85;;
16308;SDS011;8263;48.880;9.276;2022-08-19T04:24:20;6.60;;;3.35;;
16308;SDS011;8263;48.880;9.276;2022-08-19T04:26:49;4.20;;;2.50;;
16308;SDS011;8263;48.880;9.276;2022-08-19T04:29:17;4.93;;;2.58;;
16308;SDS011;8263;48.880;9.276;2022-08-19T04:31:45;6.50;;;3.30;;
16308;SDS011;8263;48.880;9.276;2022-08-19T04:34:14;6.18;;;3.38;;
16308;SDS011;8263;48.880;9.276;2022-08-19T04:36:44;5.32;;;2.92;;
16308;SDS011;8263;48.880;9.276;2022-08-19T04:39:13;5.28;;;3.13;;
16308;SDS011;8263;48.880;9.276;2022-08-19T04:41:40;4.38;;;2.90;;
16308;SDS011;8263;48.880;9.276;2022-08-19T04:44:24;5.85;;;2.85;;
16308;SDS011;8263;48.880;9.276;2022-08-19T04:46:51;7.03;;;3.00;;
16308;SDS011;8263;48.880;9.276;2022-08-19T04:49:20;4.85;;;2.92;;
16308;SDS011;8263;48.880;9.276;2022-08-19T04:51:48;7.32;;;4.53;;
16308;SDS011;8263;48.880;9.276;2022-08-19T04:54:16;6.07;;;3.47;;
16308;SDS011;8263;48.880;9.276;2022-08-19T04:56:43;9.68;;;2.58;;
16308;SDS011;8263;48.880;9.276;2022-08-19T04:59:10;6.25;;;3.00;;
16308;SDS011;8263;48.880;9.276;2022-08-19T05:01:37;4.88;;;2.58;;
16308;SDS011;8263;48.880;9.276;2022-08-19T05:04:04;6.90;;;3.50;;
16308;SDS011;8263;48.880;9.276;2022-08-19T05:06:33;6.82;;;2.78;;
16308;SDS011;8263;48.880;9.276;2022-08-19T05:09:00;7.88;;;3.60;;
16308;SDS011;8263;48.880;9.276;2022-08-19T05:11:28;6.38;;;3.33;;
16308;SDS011;8263;48.880;9.276;2022-08-19T05:13:58;5.13;;;2.53;;
16308;SDS011;8263;48.880;9.276;2022-08-19T05:16:25;6.28;;;3.47;;
16308;SDS011;8263;48.880;9.276;2022-08-19T05:18:53;5.88;;;2.78;;
16308;SDS011;8263;48.880;9.276;2022-08-19T05:21:38;7.25;;;3.50;;
16308;SDS011;8263;48.880;9.276;2022-08-19T05:24:23;5.13;;;2.92;;
16308;SDS011;8263;48.880;9.276;2022-08-19T05:26:50;7.97;;;3.55;;
16308;SDS011;8263;48.880;9.276;2022-08-19T05:29:18;7.13;;;2.88;;
16308;SDS011;8263;48.880;9.276;2022-08-19T05:31:47;8.43;;;3.13;;
16308;SDS011;8263;48.880;9.276;2022-08-19T05:34:14;4.45;;;2.42;;
16308;SDS011;8263;48.880;9.276;2022-08-19T05:36:44;6.43;;;3.35;;
16308;SDS011;8263;48.880;9.276;2022-08-19T05:39:12;7.13;;;3.35;;
16308;SDS011;8263;48.880;9.276;2022-08-19T05:41:41;6.13;;;2.80;;
16308;SDS011;8263;48.880;9.276;2022-08-19T05:44:07;5.55;;;2.97;;
16308;SDS011;8263;48.880;9.276;2022-08-19T05:46:34;4.00;;;2.45;;
16308;SDS011;8263;48.880;9.276;2022-08-19T05:49:02;5.43;;;2.63;;
16308;SDS011;8263;48.880;9.276;2022-08-19T05:51:31;4.22;;;2.85;;
16308;SDS011;8263;48.880;9.276;2022-08-19T05:53:59;6.00;;;3.28;;
16308;SDS011;8263;48.880;9.276;2022-08-19T05:56:26;8.77;;;3.63;;
16308;SDS011;8263;48.880;9.276;2022-08-19T05:58:52;6.68;;;3.33;;
16308;SDS011;8263;48.880;9.276;2022-08-19T06:01:19;7.82;;;3.10;;
16308;SDS011;8263;48.880;9.276;2022-08-19T06:03:45;3.67;;;2.65;;
16308;SDS011;8263;48.880;9.276;2022-08-19T06:06:16;5.10;;;3.03;;
16308;SDS011;8263;48.880;9.276;2022-08-19T06:08:42;5.38;;;3.03;;
16308;SDS011;8263;48.880;9.276;2022-08-19T06:11:19;4.68;;;2.67;;
16308;SDS011;8263;48.880;9.276;2022-08-19T06:13:46;6.95;;;2.83;;
16308;SDS011;8263;48.880;9.276;2022-08-19T06:16:16;6.03;;;3.08;;
16308;SDS011;8263;48.880;9.276;2022-08-19T06:18:47;5.93;;;3.38;;
16308;SDS011;8263;48.880;9.276;2022-08-19T06:21:15;5.85;;;3.22;;
16308;SDS011;8263;48.880;9.276;2022-08-19T06:23:42;6.05;;;3.20;;
16308;SDS011;8263;48.880;9.276;2022-08-19T06:26:10;4.78;;;2.75;;
16308;SDS011;8263;48.880;9.276;2022-08-19T06:28:39;8.00;;;3.63;;
16308;SDS011;8263;48.880;9.276;2022-08-19T06:31:08;7.05;;;3.30;;
16308;SDS011;8263;48.880;9.276;2022-08-19T06:33:34;5.72;;;3.13;;
16308;SDS011;8263;48.880;9.276;2022-08-19T06:36:16;7.22;;;4.07;;
16308;SDS011;8263;48.880;9.276;2022-08-19T06:38:48;5.47;;;2.85;;
16308;SDS011;8263;48.880;9.276;2022-08-19T06:41:35;6.75;;;3.67;;
16308;SDS011;8263;48.880;9.276;2022-08-19T06:44:13;7.97;;;3.60;;
16308;SDS011;8263;48.880;9.276;2022-08-19T06:46:54;7.00;;;3.17;;
16308;SDS011;8263;48.880;9.276;2022-08-19T06:49:21;5.88;;;3.10;;
16308;SDS011;8263;48.880;9.276;2022-08-19T06:51:48;7.63;;;3.55;;
16308;SDS011;8263;48.880;9.276;2022-08-19T06:54:15;6.70;;;3.90;;
16308;SDS011;8263;48.880;9.276;2022-08-19T06:56:43;6.88;;;3.88;;
16308;SDS011;8263;48.880;9.276;2022-08-19T06:59:12;6.00;;;3.00;;
16308;SDS011;8263;48.880;9.276;2022-08-19T07:01:41;6.80;;;2.75;;
16308;SDS011;8263;48.880;9.276;2022-08-19T07:04:28;6.15;;;3.28;;
16308;SDS011;8263;48.880;9.276;2022-08-19T07:07:00;6.95;;;3.97;;
16308;SDS011;8263;48.880;9.276;2022-08-19T07:09:33;5.88;;;3.10;;
16308;SDS011;8263;48.880;9.276;2022-08-19T07:12:03;6.93;;;3.63;;
16308;SDS011;8263;48.880;9.276;2022-08-19T07:17:58;5.82;;;3.13;;
16308;SDS011;8263;48.880;9.276;2022-08-19T07:20:50;6.93;;;3.22;;
16308;SDS011;8263;48.880;9.276;2022-08-19T07:23:21;6.63;;;3.53;;
16308;SDS011;8263;48.880;9.276;2022-08-19T07:25:48;7.07;;;3.33;;
16308;SDS011;8263;48.880;9.276;2022-08-19T07:28:24;4.90;;;3.03;;
16308;SDS011;8263;48.880;9.276;2022-08-19T07:30:50;6.07;;;3.00;;
16308;SDS011;8263;48.880;9.276;2022-08-19T07:33:19;7.43;;;3.70;;
16308;SDS011;8263;48.880;9.276;2022-08-19T07:35:45;8.38;;;3.30;;
16308;SDS011;8263;48.880;9.276;2022-08-19T07:38:12;5.13;;;3.05;;
16308;SDS011;8263;48.880;9.276;2022-08-19T07:40:39;6.95;;;4.15;;
16308;SDS011;8263;48.880;9.276;2022-08-19T07:43:07;6.57;;;3.08;;
16308;SDS011;8263;48.880;9.276;2022-08-19T07:45:34;4.85;;;2.58;;
16308;SDS011;8263;48.880;9.276;2022-08-19T07:48:01;4.80;;;3.00;;
16308;SDS011;8263;48.880;9.276;2022-08-19T07:50:30;5.15;;;3.03;;
16308;SDS011;8263;48.880;9.276;2022-08-19T07:52:57;7.10;;;3.20;;
16308;SDS011;8263;48.880;9.276;2022-08-19T07:55:24;4.40;;;2.60;;
16308;SDS011;8263;48.880;9.276;2022-08-19T07:57:51;5.13;;;2.83;;
16308;SDS011;8263;48.880;9.276;2022-08-19T08:00:18;6.00;;;2.85;;
16308;SDS011;8263;48.880;9.276;2022-08-19T08:02:45;4.88;;;3.05;;
16308;SDS011;8263;48.880;9.276;2022-08-19T08:05:11;6.55;;;2.50;;
16308;SDS011;8263;48.880;9.276;2022-08-19T08:07:57;5.50;;;2.70;;
16308;SDS011;8263;48.880;9.276;2022-08-19T08:10:41;4.13;;;2.20;;
16308;SDS011;8263;48.880;9.276;2022-08-19T08:13:07;5.68;;;2.75;;
16308;SDS011;8263;48.880;9.276;2022-08-19T08:15:34;6.53;;;3.30;;
16308;SDS011;8263;48.880;9.276;2022-08-19T08:18:02;5.28;;;2.78;;
16308;SDS011;8263;48.880;9.276;2022-08-19T08:20:28;4.68;;;2.35;;
16308;SDS011;8263;48.880;9.276;2022-08-19T08:22:56;4.57;;;2.60;;
16308;SDS011;8263;48.880;9.276;2022-08-19T08:25:40;4.85;;;2.50;;
16308;SDS011;8263;48.880;9.276;2022-08-19T08:28:07;5.32;;;2.35;;
16308;SDS011;8263;48.880;9.276;2022-08-19T08:30:34;8.60;;;3.25;;
16308;SDS011;8263;48.880;9.276;2022-08-19T08:33:01;7.57;;;2.78;;
16308;SDS011;8263;48.880;9.276;2022-08-19T08:35:28;5.38;;;2.88;;
16308;SDS011;8263;48.880;9.276;2022-08-19T08:37:56;6.57;;;3.30;;
16308;SDS011;8263;48.880;9.276;2022-08-19T08:40:26;5.47;;;2.95;;
16308;SDS011;8263;48.880;9.276;2022-08-19T08:42:54;6.93;;;3.33;;
16308;SDS011;8263;48.880;9.276;2022-08-19T08:45:25;3.88;;;2.60;;
16308;SDS011;8263;48.880;9.276;2022-08-19T08:47:52;9.50;;;3.25;;
16308;SDS011;8263;48.880;9.276;2022-08-19T08:50:20;5.28;;;3.05;;
16308;SDS011;8263;48.880;9.276;2022-08-19T08:52:48;5.47;;;3.13;;
16308;SDS011;8263;48.880;9.276;2022-08-19T08:55:20;5.32;;;3.25;;
16308;SDS011;8263;48.880;9.276;2022-08-19T08:57:50;5.35;;;3.05;;
16308;SDS011;8263;48.880;9.276;2022-08-19T09:00:21;5.28;;;3.08;;
16308;SDS011;8263;48.880;9.276;2022-08-19T09:02:49;5.40;;;3.10;;
16308;SDS011;8263;48.880;9.276;2022-08-19T09:05:15;5.50;;;3.40;;
16308;SDS011;8263;48.880;9.276;2022-08-19T09:07:44;7.25;;;3.20;;
16308;SDS011;8263;48.880;9.276;2022-08-19T09:10:14;7.22;;;3.08;;
16308;SDS011;8263;48.880;9.276;2022-08-19T09:12:46;4.68;;;2.70;;
16308;SDS011;8263;48.880;9.276;2022-08-19T09:15:15;5.15;;;3.08;;
16308;SDS011;8263;48.880;9.276;2022-08-19T09:17:44;4.22;;;2.88;;
16308;SDS011;8263;48.880;9.276;2022-08-19T09:20:14;4.90;;;2.63;;
16308;SDS011;8263;48.880;9.276;2022-08-19T09:22:42;4.55;;;2.45;;
16308;SDS011;8263;48.880;9.276;2022-08-19T09:25:10;4.03;;;2.53;;
16308;SDS011;8263;48.880;9.276;2022-08-19T09:27:38;6.78;;;3.10;;
16308;SDS011;8263;48.880;9.276;2022-08-19T09:30:08;6.50;;;3.03;;
16308;SDS011;8263;48.880;9.276;2022-08-19T09:32:35;5.32;;;2.78;;
16308;SDS011;8263;48.880;9.276;2022-08-19T09:35:07;4.65;;;2.55;;
16308;SDS011;8263;48.880;9.276;2022-08-19T09:37:34;6.75;;;2.38;;
16308;SDS011;8263;48.880;9.276;2022-08-19T09:40:01;5.22;;;2.63;;
16308;SDS011;8263;48.880;9.276;2022-08-19T09:42:28;6.15;;;3.53;;
16308;SDS011;8263;48.880;9.276;2022-08-19T09:44:54;5.07;;;3.17;;
16308;SDS011;8263;48.880;9.276;2022-08-19T09:47:23;5.13;;;2.35;;
16308;SDS011;8263;48.880;9.276;2022-08-19T09:49:49;5.72;;;2.83;;
16308;SDS011;8263;48.880;9.276;2022-08-19T09:52:16;3.63;;;2.55;;
16308;SDS011;8263;48.880;9.276;2022-08-19T09:54:43;6.82;;;3.35;;
16308;SDS011;8263;48.880;9.276;2022-08-19T09:57:09;5.05;;;2.72;;
16308;SDS011;8263;48.880;9.276;2022-08-19T09:59:36;7.05;;;3.28;;
16308;SDS011;8263;48.880;9.276;2022-08-19T10:02:05;4.80;;;2.67;;
16308;SDS011;8263;48.880;9.276;2022-08-19T10:04:33;5.40;;;2.70;;
16308;SDS011;8263;48.880;9.276;2022-08-19T10:07:17;10.35;;;3.03;;
16308;SDS011;8263;48.880;9.276;2022-08-19T10:09:44;5.03;;;2.92;;
16308;SDS011;8263;48.880;9.276;2022-08-19T10:12:10;4.00;;;2.30;;
16308;SDS011;8263;48.880;9.276;2022-08-19T10:14:36;4.85;;;2.42;;
16308;SDS011;8263;48.880;9.276;2022-08-19T10:17:03;4.18;;;2.40;;
16308;SDS011;8263;48.880;9.276;2022-08-19T10:19:30;4.43;;;2.65;;
16308;SDS011;8263;48.880;9.276;2022-08-19T10:22:03;4.32;;;2.38;;
16308;SDS011;8263;48.880;9.276;2022-08-19T10:24:30;4.35;;;2.63;;
16308;SDS011;8263;48.880;9.276;2022-08-19T10:26:57;5.30;;;2.75;;
16308;SDS011;8263;48.880;9.276;2022-08-19T10:29:23;4.25;;;2.50;;
16308;SDS011;8263;48.880;9.276;2022-08-19T10:31:50;3.25;;;2.17;;
16308;SDS011;8263;48.880;9.276;2022-08-19T10:34:16;7.03;;;3.90;;
16308;SDS011;8263;48.880;9.276;2022-08-19T10:36:44;3.70;;;2.30;;
16308;SDS011;8263;48.880;9.276;2022-08-19T10:39:12;4.60;;;3.05;;
16308;SDS011;8263;48.880;9.276;2022-08-19T10:41:39;6.00;;;4.13;;
16308;SDS011;8263;48.880;9.276;2022-08-19T10:44:09;7.38;;;4.15;;
16308;SDS011;8263;48.880;9.276;2022-08-19T10:46:37;5.72;;;3.13;;
16308;SDS011;8263;48.880;9.276;2022-08-19T10:49:06;6.93;;;3.05;;
16308;SDS011;8263;48.880;9.276;2022-08-19T10:51:33;3.88;;;2.42;;
16308;SDS011;8263;48.880;9.276;2022-08-19T10:54:19;3.88;;;2.78;;
16308;SDS011;8263;48.880;9.276;2022-08-19T10:56:46;5.75;;;2.20;;
16308;SDS011;8263;48.880;9.276;2022-08-19T10:59:18;4.20;;;2.03;;
16308;SDS011;8263;48.880;9.276;2022-08-19T11:01:45;3.55;;;2.10;;
16308;SDS011;8263;48.880;9.276;2022-08-19T11:04:12;3.30;;;1.95;;
16308;SDS011;8263;48.880;9.276;2022-08-19T11:06:38;4.38;;;2.53;;
16308;SDS011;8263;48.880;9.276;2022-08-19T11:09:07;3.15;;;2.22;;
16308;SDS011;8263;48.880;9.276;2022-08-19T11:11:35;4.05;;;2.38;;
16308;SDS011;8263;48.880;9.276;2022-08-19T11:14:05;3.13;;;2.20;;
16308;SDS011;8263;48.880;9.276;2022-08-19T11:16:32;2.50;;;1.85;;
16308;SDS011;8263;48.880;9.276;2022-08-19T11:18:58;3.15;;;2.03;;
16308;SDS011;8263;48.880;9.276;2022-08-19T11:21:27;3.22;;;1.90;;
16308;SDS011;8263;48.880;9.276;2022-08-19T11:23:57;4.40;;;1.92;;
16308;SDS011;8263;48.880;9.276;2022-08-19T11:26:25;3.67;;;2.10;;
16308;SDS011;8263;48.880;9.276;2022-08-19T11:28:53;2.90;;;2.28;;
16308;SDS011;8263;48.880;9.276;2022-08-19T11:31:21;2.78;;;2.20;;
16308;SDS011;8263;48.880;9.276;2022-08-19T11:33:48;1.77;;;1.60;;
16308;SDS011;8263;48.880;9.276;2022-08-19T11:36:16;2.38;;;1.92;;
16308;SDS011;8263;48.880;9.276;2022-08-19T11:38:42;4.43;;;2.03;;
16308;SDS011;8263;48.880;9.276;2022-08-19T11:41:09;3.00;;;1.90;;
16308;SDS011;8263;48.880;9.276;2022-08-19T11:43:37;7.63;;;1.60;;
16308;SDS011;8263;48.880;9.276;2022-08-19T11:46:06;3.45;;;1.83;;
16308;SDS011;8263;48.880;9.276;2022-08-19T11:48:33;2.38;;;1.75;;
16308;SDS011;8263;48.880;9.276;2022-08-19T11:51:02;2.42;;;1.77;;
16308;SDS011;8263;48.880;9.276;2022-08-19T11:53:31;3.10;;;1.77;;
16308;SDS011;8263;48.880;9.276;2022-08-19T11:55:57;2.83;;;2.10;;
16308;SDS011;8263;48.880;9.276;2022-08-19T11:58:25;3.15;;;2.17;;
16308;SDS011;8263;48.880;9.276;2022-08-19T12:00:52;2.35;;;1.67;;
16308;SDS011;8263;48.880;9.276;2022-08-19T12:03:20;2.60;;;2.00;;
16308;SDS011;8263;48.880;9.276;2022-08-19T12:05:47;2.50;;;1.70;;
16308;SDS011;8263;48.880;9.276;2022-08-19T12:08:14;4.30;;;2.28;;
16308;SDS011;8263;48.880;9.276;2022-08-19T12:10:41;2.50;;;1.75;;
16308;SDS011;8263;48.880;9.276;2022-08-19T12:13:09;3.13;;;2.22;;
16308;SDS011;8263;48.880;9.276;2022-08-19T12:15:37;3.58;;;1.90;;
16308;SDS011;8263;48.880;9.276;2022-08-19T12:18:05;3.00;;;1.80;;
16308;SDS011;8263;48.880;9.276;2022-08-19T12:20:35;3.35;;;2.47;;
16308;SDS011;8263;48.880;9.276;2022-08-19T12:23:02;3.42;;;1.85;;
16308;SDS011;8263;48.880;9.276;2022-08-19T12:25:28;4.13;;;1.70;;
16308;SDS011;8263;48.880;9.276;2022-08-19T12:27:55;2.58;;;1.77;;
16308;SDS011;8263;48.880;9.276;2022-08-19T12:30:22;2.45;;;1.70;;
16308;SDS011;8263;48.880;9.276;2022-08-19T12:32:48;3.03;;;2.00;;
16308;SDS011;8263;48.880;9.276;2022-08-19T12:35:16;2.90;;;1.95;;
16308;SDS011;8263;48.880;9.276;2022-08-19T12:37:48;2.22;;;1.33;;
16308;SDS011;8263;48.880;9.276;2022-08-19T12:40:15;3.58;;;2.22;;
16308;SDS011;8263;48.880;9.276;2022-08-19T12:42:42;2.67;;;1.88;;
16308;SDS011;8263;48.880;9.276;2022-08-19T12:45:09;2.45;;;1.85;;
16308;SDS011;8263;48.880;9.276;2022-08-19T12:47:36;3.03;;;2.22;;
16308;SDS011;8263;48.880;9.276;2022-08-19T12:50:03;2.47;;;1.73;;
16308;SDS011;8263;48.880;9.276;2022-08-19T12:52:33;2.60;;;2.03;;
16308;SDS011;8263;48.880;9.276;2022-08-19T12:55:03;3.17;;;1.92;;
16308;SDS011;8263;48.880;9.276;2022-08-19T12:57:30;2.10;;;1.77;;
16308;SDS011;8263;48.880;9.276;2022-08-19T12:59:58;3.53;;;1.70;;
16308;SDS011;8263;48.880;9.276;2022-08-19T13:02:24;2.15;;;1.92;;
16308;SDS011;8263;48.880;9.276;2022-08-19T13:04:51;7.10;;;1.77;;
16308;SDS011;8263;48.880;9.276;2022-08-19T13:07:18;2.70;;;2.03;;
16308;SDS011;8263;48.880;9.276;2022-08-19T13:09:44;2.60;;;1.85;;
16308;SDS011;8263;48.880;9.276;2022-08-19T13:12:12;3.75;;;1.52;;
16308;SDS011;8263;48.880;9.276;2022-08-19T13:14:39;2.30;;;1.70;;
16308;SDS011;8263;48.880;9.276;2022-08-19T13:17:06;2.72;;;1.88;;
16308;SDS011;8263;48.880;9.276;2022-08-19T13:19:35;2.50;;;2.00;;
16308;SDS011;8263;48.880;9.276;2022-08-19T13:22:02;3.22;;;1.67;;
16308;SDS011;8263;48.880;9.276;2022-08-19T13:24:29;2.97;;;1.83;;
16308;SDS011;8263;48.880;9.276;2022-08-19T13:26:55;2.58;;;1.98;;
16308;SDS011;8263;48.880;9.276;2022-08-19T13:29:23;2.05;;;1.58;;
16308;SDS011;8263;48.880;9.276;2022-08-19T13:32:07;1.83;;;1.65;;
16308;SDS011;8263;48.880;9.276;2022-08-19T13:34:51;2.50;;;1.80;;
16308;SDS011;8263;48.880;9.276;2022-08-19T13:37:18;3.15;;;1.98;;
16308;SDS011;8263;48.880;9.276;2022-08-19T13:40:05;4.30;;;1.90;;
16308;SDS011;8263;48.880;9.276;2022-08-19T13:42:32;3.00;;;1.90;;
16308;SDS011;8263;48.880;9.276;2022-08-19T13:45:00;5.57;;;2.70;;
16308;SDS011;8263;48.880;9.276;2022-08-19T13:47:27;5.13;;;2.53;;
16308;SDS011;8263;48.880;9.276;2022-08-19T13:49:53;4.63;;;2.03;;
16308;SDS011;8263;48.880;9.276;2022-08-19T13:52:20;10.35;;;2.58;;
16308;SDS011;8263;48.880;9.276;2022-08-19T13:54:46;5.63;;;3.20;;
16308;SDS011;8263;48.880;9.276;2022-08-19T13:57:13;5.97;;;2.42;;
16308;SDS011;8263;48.880;9.276;2022-08-19T13:59:40;6.00;;;2.97;;
16308;SDS011;8263;48.880;9.276;2022-08-19T14:02:08;4.45;;;2.83;;
16308;SDS011;8263;48.880;9.276;2022-08-19T14:04:35;4.07;;;2.53;;
16308;SDS011;8263;48.880;9.276;2022-08-19T14:07:02;5.63;;;2.58;;
16308;SDS011;8263;48.880;9.276;2022-08-19T14:09:30;5.18;;;2.13;;
16308;SDS011;8263;48.880;9.276;2022-08-19T14:11:57;4.97;;;2.35;;
16308;SDS011;8263;48.880;9.276;2022-08-19T14:14:24;5.80;;;2.40;;
16308;SDS011;8263;48.880;9.276;2022-08-19T14:16:51;5.43;;;2.88;;
16308;SDS011;8263;48.880;9.276;2022-08-19T14:19:19;4.13;;;2.83;;
16308;SDS011;8263;48.880;9.276;2022-08-19T14:21:46;7.22;;;3.05;;
16308;SDS011;8263;48.880;9.276;2022-08-19T14:24:12;7.13;;;3.33;;
16308;SDS011;8263;48.880;9.276;2022-08-19T14:26:39;4.80;;;2.63;;
16308;SDS011;8263;48.880;9.276;2022-08-19T14:29:06;5.43;;;2.75;;
16308;SDS011;8263;48.880;9.276;2022-08-19T14:31:32;6.22;;;3.33;;
16308;SDS011;8263;48.880;9.276;2022-08-19T14:33:59;6.90;;;2.85;;
16308;SDS011;8263;48.880;9.276;2022-08-19T14:36:27;5.72;;;2.88;;
16308;SDS011;8263;48.880;9.276;2022-08-19T14:38:55;5.15;;;2.70;;
16308;SDS011;8263;48.880;9.276;2022-08-19T14:41:23;6.32;;;2.70;;
16308;SDS011;8263;48.880;9.276;2022-08-19T14:43:50;5.70;;;2.80;;
16308;SDS011;8263;48.880;9.276;2022-08-19T14:46:18;8.23;;;2.83;;
16308;SDS011;8263;48.880;9.276;2022-08-19T14:48:46;4.85;;;2.88;;
16308;SDS011;8263;48.880;9.276;2022-08-19T14:51:13;5.80;;;2.75;;
16308;SDS011;8263;48.880;9.276;2022-08-19T14:53:42;5.07;;;2.80;;
16308;SDS011;8263;48.880;9.276;2022-08-19T14:56:09;4.45;;;2.60;;
16308;SDS011;8263;48.880;9.276;2022-08-19T14:58:36;4.30;;;2.60;;
16308;SDS011;8263;48.880;9.276;2022-08-19T15:01:03;5.93;;;3.03;;
16308;SDS011;8263;48.880;9.276;2022-08-19T15:03:30;5.85;;;2.70;;
16308;SDS011;8263;48.880;9.276;2022-08-19T15:05:58;4.97;;;2.53;;
16308;SDS011;8263;48.880;9.276;2022-08-19T15:08:25;5.20;;;3.03;;
16308;SDS011;8263;48.880;9.276;2022-08-19T15:10:54;4.95;;;2.67;;